Thursday, April 19, 2018, 5:17 PM EDT
Back to Local

KJHW, Jamestown, Chautauqua County/jamestown Airport

Location: Jamestown, NY, United States Lat: 42.15
Local Time: 5:17 PM EDT (21:17 GMT) Lon: -79.267
Time Zone: US/Eastern Elev: 1722 ft

Show me the last for .
Show Decoded

2018-04-19 16:56 METAR KJHW 192056Z AUTO 31019G24KT 10SM OVC017 01/M03 A3001 RMK AO2 PK WND
                 29026/2025 UPB38E42SNE38 SLP186 6//// T00061033 51016 FZRANO =
2018-04-19 15:56 METAR KJHW 191956Z AUTO 32020G27KT 4SM -SN BKN017 OVC023 00/M03 A2999 RMK AO2 PK
                 WND 32027/1956 SLP180 P0000 T00001033 FZRANO =
2018-04-19 14:56 METAR KJHW 191856Z AUTO 30019G22KT 4SM -SN OVC021 M01/M04 A2998 RMK AO2 SNB36
                 SLP177 T10061039 FZRANO =
2018-04-19 13:56 METAR KJHW 191756Z AUTO 32014G19KT 10SM OVC027 00/M05 A2996 RMK AO2 SLP169 60001
                 T00001050 10006 21022 FZRANO =
2018-04-19 13:16 METAR KJHW 191716Z AUTO 32013G20KT 10SM BKN019 OVC023 M01/M04 A2995 RMK AO2
                 FZRANO =
2018-04-19 12:56 METAR KJHW 191656Z AUTO 32009KT 9SM OVC014 M02/M04 A2994 RMK AO2 SNE52 SLP164
                 P0000 T10171044 FZRANO =
2018-04-19 11:56 METAR KJHW 191556Z AUTO 33009KT 8SM -SN OVC016 M02/M04 A2991 RMK AO2 SLP155
                 P0000 T10221044 FZRANO =
2018-04-19 11:03 METAR KJHW 191503Z AUTO 33009KT 8SM -SN BKN015 OVC023 M02/M04 A2988 RMK AO2
                 P0000 FZRANO =
2018-04-19 10:56 METAR KJHW 191456Z AUTO 8SM -SN BKN013 OVC021 M02/M04 RMK AO2 SLPNO P0000 60001
                 T10221039 FZRANO $ =
2018-04-19 10:31 METAR KJHW 191431Z AUTO 32008G15KT 8SM -SN BKN011 OVC016 M02/M04 A2986 RMK AO2
                 CIG 007V013 P0000 FZRANO =
2018-04-19 10:22 METAR KJHW 191422Z AUTO 33008KT 5SM -SN BR BKN009 OVC016 M02/M03 A2986 RMK AO2
                 CIG 007V012 P0000 FZRANO =
2018-04-19 09:56 METAR KJHW 191356Z AUTO 34010G16KT 2 1/2SM -SN BR OVC009 M02/M03 A2984 RMK AO2
                 UPB03E13SNE03B13 CIG 007V011 SLP128 P0001 T10221033 FZRANO =
2018-04-19 09:28 METAR KJHW 191328Z AUTO 34011KT 2SM -SN BR OVC007 M02/M03 A2982 RMK AO2
                 UPB03E13SNE03B13 CIG 005V011 P0001 FZRANO =
2018-04-19 08:56 METAR KJHW 191256Z AUTO 35011KT 2SM -SN BR OVC005 M02/M03 A2980 RMK AO2 SLP116
                 P0000 T10221028 FZRANO =
2018-04-19 08:48 METAR KJHW 191248Z AUTO 34012KT 2SM -SN BR OVC005 M02/M03 A2980 RMK AO2 P0000
                 FZRANO =
2018-04-19 08:33 METAR KJHW 191233Z AUTO 34011KT 1 3/4SM -SN BR OVC005 M02/M03 A2979 RMK AO2
                 P0000 FZRANO =
2018-04-19 08:26 METAR KJHW 191226Z AUTO 33011KT 2SM -SN BR OVC005 M02/M03 A2979 RMK AO2 P0000
                 FZRANO TSNO =
2018-04-19 08:18 METAR KJHW 191218Z AUTO 33009KT 3SM -SN BR OVC005 M02/M03 A2979 RMK AO2 P0000
                 FZRANO =
2018-04-19 07:56 METAR KJHW 191156Z AUTO 34007KT 4SM -SN BR OVC007 M02/M03 A2979 RMK AO2 SNE11B42
                 SLP110 P0000 60000 7//// T10221028 11017 21022 53020 FZRANO =
2018-04-19 07:28 METAR KJHW 191128Z AUTO 32008KT 10SM BKN007 OVC014 M02/M03 A2977 RMK AO2 SNE11
                 CIG 004V011 P0000 FZRANO =
2018-04-19 06:56 METAR KJHW 191056Z AUTO 34007KT 9SM -SN BKN005 OVC011 M02/M03 A2975 RMK AO2
                 UPB10E28SNE10B28 CIG 003V009 SLP096 P0000 T10221028 FZRANO =
2018-04-19 06:17 METAR KJHW 191017Z AUTO 35008KT 3SM UP BR OVC002 M02/M02 A2972 RMK AO2
                 UPB10SNE10 P0000 FZRANO =
2018-04-19 06:07 METAR KJHW 191007Z AUTO 36006KT 2 1/2SM -SN BR OVC002 M02/M02 A2972 RMK AO2
                 P0000 FZRANO =
2018-04-19 05:56 METAR KJHW 190956Z AUTO 01006KT 2 1/2SM -SN BR BKN004 OVC008 M02/M03 A2972 RMK
                 AO2 UPE32SNB32 SLP087 P0000 T10171028 FZRANO =
2018-04-19 05:54 METAR KJHW 190954Z AUTO 01006KT 3SM -SN BR BKN004 OVC008 M02/M03 A2972 RMK AO2
                 UPE32SNB32 P0000 FZRANO =
2018-04-19 05:39 METAR KJHW 190939Z AUTO 36004KT 5SM -SN BR FEW003 OVC010 M02/M03 A2973 RMK AO2
                 UPE32SNB32 CIG 007V013 P0000 FZRANO =
2018-04-19 05:30 METAR KJHW 190930Z AUTO 5SM UP BR BKN003 OVC010 M02/M03 A2974 RMK AO2 P0000
                 FZRANO =
2018-04-19 05:21 METAR KJHW 190921Z AUTO 35003KT 4SM UP BR SCT003 OVC010 M02/M02 A2974 RMK AO2
                 CIG 008V013 P0000 FZRANO =
2018-04-19 04:56 METAR KJHW 190856Z AUTO 02005KT 3SM UP BR BKN005 OVC013 M02/M02 A2974 RMK AO2
                 UPB40SNB16E40 CIG 003V008 SLP091 P0000 60000 T10171022 51012 FZRANO =
2018-04-19 04:17 METAR KJHW 190817Z AUTO 36008KT 3SM -SN BR OVC003 M02/M03 A2974 RMK AO2 SNB16
                 P0000 FZRANO =
2018-04-19 04:15 METAR KJHW 190815Z AUTO 34008KT 1 1/2SM BR OVC003 M02/M03 A2974 RMK AO2 FZRANO =
2018-04-19 04:12 METAR KJHW 190812Z AUTO 34009KT 3/4SM BR OVC003 M02/M03 A2974 RMK AO2 FZRANO
                 RVRNO =
2018-04-19 03:56 METAR KJHW 190756Z AUTO 34007KT 1/4SM FZFG OVC003 M02/M03 A2974 RMK AO2 SLP092
                 T10171028 FZRANO RVRNO =
2018-04-19 03:47 METAR KJHW 190747Z AUTO 34007KT 1/2SM FZFG OVC003 M02/M03 A2974 RMK AO2 CIG
                 002V005 FZRANO RVRNO =
2018-04-19 03:44 METAR KJHW 190744Z AUTO 34008KT 1SM BR OVC003 M02/M03 A2973 RMK AO2 VIS 1/4V5
                 CIG 002V007 FZRANO RVRNO =
2018-04-19 03:42 METAR KJHW 190742Z AUTO 35008KT 2SM BR OVC003 M02/M03 A2973 RMK AO2 VIS 1/2V5
                 CIG 002V007 FZRANO =
2018-04-19 03:31 METAR KJHW 190731Z AUTO 34006KT 10SM BKN005 OVC009 M02/M03 A2973 RMK AO2 CIG
                 003V007 PRESRR FZRANO =
2018-04-19 02:56 METAR KJHW 190656Z AUTO 36006KT 10SM BKN007 OVC011 M02/M03 A2970 RMK AO2
                 UPB00E45 SLP080 P0000 T10171028 FZRANO =
2018-04-19 01:56 METAR KJHW 190556Z AUTO 00000KT 10SM BKN013 OVC065 M02/M03 A2973 RMK AO2 SLP090
                 60002 T10171033 11011 21022 56008 FZRANO =
2018-04-19 01:48 METAR KJHW 190548Z AUTO 24005KT 10SM BKN013 OVC065 M02/M03 A2976 RMK AO2 PRESRR
                 FZRANO =
2018-04-19 00:56 METAR KJHW 190456Z AUTO 00000KT 10SM FEW039 OVC095 M02/M03 A2973 RMK AO2 SLP092
                 T10221033 400111022 FZRANO =
2018-04-18 23:56 METAR KJHW 190356Z AUTO 04006KT 10SM FEW120 M02/M03 A2970 RMK AO2 SNE17 PRESFR
                 SLP081 P0000 T10221033 FZRANO =
2018-04-18 22:56 METAR KJHW 190256Z AUTO 01009KT 9SM -SN FEW055 OVC070 M02/M03 A2976 RMK AO2
                 UPB09E11SNE09B37 SLP100 P0000 60002 T10171033 58001 FZRANO =
2018-04-18 21:56 METAR KJHW 190156Z AUTO 35009KT 10SM -SN SCT060 OVC075 M01/M03 A2981 RMK AO2
                 UPB32E50SNE32B50 SLP117 P0002 T10111028 FZRANO =
2018-04-18 20:56 METAR KJHW 190056Z AUTO 00000KT 9SM -SN SCT020 BKN050 OVC085 M01/M03 A2979 RMK
                 AO2 UPB45E47SNB47 SLP113 P0000 T10111028 FZRANO =
2018-04-18 20:20 METAR KJHW 190020Z AUTO 00000KT 10SM BKN022 M02/M03 A2977 RMK AO2 FZRANO =
2018-04-18 19:56 METAR KJHW 182356Z AUTO 02003KT 10SM CLR M01/M03 A2976 RMK AO2 SLP102 6////
                 T10111033 10011 21011 56016 FZRANO =
2018-04-18 19:04 METAR KJHW 182304Z AUTO 01005KT 10SM SCT023 00/M03 A2977 RMK AO2 FZRANO =
2018-04-18 18:56 METAR KJHW 182256Z AUTO 36006KT 10SM BKN023 01/M03 A2978 RMK AO2 SLP106
                 T00061033 FZRANO =
2018-04-18 17:56 METAR KJHW 182156Z AUTO 01005KT 10SM BKN018 OVC023 01/M03 A2979 RMK AO2 SLP111
                 T00061028 FZRANO =

Support USWX by starting your Amazon purchase here.